Barneston, Nebraska
Current Conditions -  °F | °C
As of 11:35 AM on Monday 22 Dec 2014 (Local Time) from KMYZ Reporting Station
Drizzle Drizzle  
Wind Chill: 36°   Ceiling: 1300
Heat Index: 43°   Visibility: 10mi
Dew Point: 41°   Wind: 14mph
Humidity: 93%   Direction: 310°NW
Pressure: 29.48"   Gusts: 20mph
Location:  40.05°N, 96.58°W
Report Text: KMYZ 221735Z AUTO 31012G17KT 10SM DZ OVC013 06/05 A2948 RMK AO2 P0001
Loading
Personal Weather Stations






























Interactive Weather Map New forecast layout! Learn more

10-Day Weather Forecast

Advertisements
Track Severe Weather on mobile